AIRPORT METAR

METAR FOR LICR
ADDS - METARS form results

(1345 UTC 08 August 2022)
Data provider http://aviationweather.gov/metar/data/
 
METAR text: LICR 081320Z AUTO 25007KT 210V340 9999 NCD 32/23 Q1012
Conditions at: LICR (REGGIO CALABRIA , IT) observed 1320 UTC 08 August 2022
Temperature: 32.0°C (90°F)
Dewpoint: 23.0°C (73°F) [RH = 59%]
Pressure (altimeter): 29.88 inches Hg (1012.0 mb)
Winds: from the WSW (250 degrees) at 8 MPH (7 knots; 3.6 m/s)
Visibility: 6 or more miles (10+ km)
Ceiling: at least 12,000 feet AGL
Clouds: sky clear below 12,000 feet AGL
Weather: no significant weather observed at this time

METAR text: LICR 081250Z AUTO 35010KT 300V010 9999 NCD 34/21 Q1012
Conditions at: LICR (REGGIO CALABRIA , IT) observed 1250 UTC 08 August 2022
Temperature: 34.0°C (93°F)
Dewpoint: 21.0°C (70°F) [RH = 47%]
Pressure (altimeter): 29.88 inches Hg (1012.0 mb)
Winds: from the N (350 degrees) at 12 MPH (10 knots; 5.1 m/s)
Visibility: 6 or more miles (10+ km)
Ceiling: at least 12,000 feet AGL
Clouds: sky clear below 12,000 feet AGL
Weather: no significant weather observed at this time

Forecast for: LICR (REGGIO CALABRIA , IT)
Text: TAF LICR 081100Z 0812/0912 01013KT CAVOK
Forecast period: 1200 UTC 08 August 2022 to 1200 UTC 09 August 2022
Forecast type: FROM: standard forecast or significant change
Winds: from the N (10 degrees) at 15 MPH (13 knots; 6.7 m/s)
Visibility: 6 or more miles (10+ km)
Ceiling: unknown
Clouds: missing
Weather: NSW  (no significant weather)
Text: TEMPO 0812/0818 TSRA
Forecast period: 1200 to 1800 UTC 08 August 2022
Forecast type: TEMPORARY: The following changes expected for less than half the time period
Visibility: missing
Ceiling: unknown
Clouds: missing
Weather: TSRA  (rain associated with thunderstorm(s))
Text: TEMPO 0909/0912 TSRA
Forecast period: 0900 to 1200 UTC 09 August 2022
Forecast type: TEMPORARY: The following changes expected for less than half the time period
Visibility: missing
Ceiling: unknown
Clouds: missing
Weather: TSRA  (rain associated with thunderstorm(s))

AIRPORT MAP

 RUNWAY INFORMATION
Runway 11 Runway length 5574 ft Runway width 148 ft
Runway elevation 38 ft Runway displaced threshold 0 ft Runway heading 113
Runway 29 Runway length 5574 ft Runway width 148 ft
Runway elevation 43 ft Runway displaced threshold 0 ft Runway heading 293
Runway 15 Runway length 6549 ft Runway width 148 ft
Runway elevation 84 ft Runway displaced threshold 840 ft Runway heading 153
Runway 33 Runway length 6549 ft Runway width 148 ft
Runway elevation 34 ft Runway displaced threshold 164 ft Runway heading 333

 AIRPORT FREQUENCIES
Type APP Name APP Frequency 120.275 MHZ
Type TWR Name TWR Frequency 118.25 MHZ

 AIRPORT NEAR NAVIGATION AIDS
Type VOR-DME Name Reggio Calabria Frequency 111000 KHZ
Type NDB Name Reggio Calabria Frequency 325 KHZ



© 2022 - Royal Sky Service, All Right Reserved.